createdAt,value
2019-04-03T00:02:08.155Z,80.81
2019-04-03T00:04:36.468Z,80.69
2019-04-03T00:07:05.944Z,80.52
2019-04-03T00:09:35.865Z,80.40
2019-04-03T00:12:04.443Z,80.27
2019-04-03T00:14:33.179Z,80.01
2019-04-03T00:17:01.470Z,79.88
2019-04-03T00:19:29.766Z,80.01
2019-04-03T00:21:58.078Z,79.85
2019-04-03T00:24:26.375Z,79.75
2019-04-03T00:26:54.698Z,79.54
2019-04-03T00:29:23.002Z,79.44
2019-04-03T00:31:52.989Z,79.31
2019-04-03T00:34:22.987Z,79.21
2019-04-03T00:36:52.937Z,79.13
2019-04-03T00:39:23.957Z,79.02
2019-04-03T00:41:52.872Z,78.93
2019-04-03T00:44:23.986Z,78.62
2019-04-03T00:46:51.685Z,78.73
2019-04-03T00:49:19.992Z,78.49
2019-04-03T00:51:48.295Z,78.01
2019-04-03T00:54:16.682Z,78.42
2019-04-03T00:56:45.312Z,78.30
2019-04-03T00:59:13.617Z,78.48
2019-04-03T01:01:42.049Z,78.69
2019-04-03T01:04:10.317Z,78.99
2019-04-03T01:06:38.948Z,79.35
2019-04-03T01:09:08.005Z,79.86
2019-04-03T01:11:36.620Z,80.26
2019-04-03T01:14:05.706Z,80.94
2019-04-03T01:16:34.032Z,81.20
2019-04-03T01:19:05.183Z,81.63
2019-04-03T01:21:32.363Z,82.14
2019-04-03T01:24:00.715Z,82.59
2019-04-03T01:26:29.092Z,82.96
2019-04-03T01:28:57.394Z,82.99
2019-04-03T01:31:25.718Z,83.27
2019-04-03T01:33:54.304Z,83.51
2019-04-03T01:36:22.679Z,83.75
2019-04-03T01:38:51.580Z,83.77
2019-04-03T01:41:21.218Z,83.86
2019-04-03T01:43:50.162Z,84.15
2019-04-03T01:46:18.452Z,84.38
2019-04-03T01:48:46.779Z,84.56
2019-04-03T01:51:15.394Z,84.49
2019-04-03T01:53:43.688Z,84.51
2019-04-03T01:56:11.976Z,84.30
2019-04-03T01:58:40.627Z,84.19
2019-04-03T02:01:08.943Z,84.21
2019-04-03T02:03:37.255Z,84.12
2019-04-03T02:06:05.572Z,84.12
2019-04-03T02:08:33.865Z,84.26
2019-04-03T02:11:02.175Z,84.15
2019-04-03T02:13:30.471Z,84.22
2019-04-03T02:15:58.791Z,84.30
2019-04-03T02:18:27.279Z,84.08
2019-04-03T02:20:57.370Z,83.87
2019-04-03T02:23:26.080Z,83.76
2019-04-03T02:25:54.321Z,83.65
2019-04-03T02:28:22.626Z,83.72
2019-04-03T02:30:51.037Z,83.65
2019-04-03T02:33:19.825Z,83.67
2019-04-03T02:35:48.821Z,83.48
2019-04-03T02:38:17.157Z,83.41
2019-04-03T02:40:45.452Z,83.22
2019-04-03T02:43:15.085Z,83.25
2019-04-03T02:45:44.227Z,83.24
2019-04-03T02:48:12.840Z,83.06
2019-04-03T02:50:41.397Z,81.04
2019-04-03T02:53:10.315Z,81.98
2019-04-03T02:55:40.073Z,82.29
2019-04-03T02:58:08.795Z,82.21
2019-04-03T03:00:37.119Z,81.90
2019-04-03T03:03:05.415Z,81.88
2019-04-03T03:05:34.320Z,81.53
2019-04-03T03:08:02.627Z,81.29
2019-04-03T03:10:31.908Z,81.21
2019-04-03T03:13:02.251Z,81.32
2019-04-03T03:15:30.588Z,81.23
2019-04-03T03:17:59.206Z,81.04
2019-04-03T03:20:29.238Z,80.83
2019-04-03T03:22:57.609Z,80.44
2019-04-03T03:25:26.416Z,80.18
2019-04-03T03:27:55.081Z,80.45
2019-04-03T03:30:42.214Z,80.48
2019-04-03T03:33:19.534Z,80.25
2019-04-03T03:35:30.121Z,80.22
2019-04-03T03:37:54.702Z,80.12
2019-04-03T03:40:23.098Z,79.83
2019-04-03T03:42:51.457Z,79.30
2019-04-03T03:45:21.723Z,78.34
2019-04-03T03:47:50.195Z,78.49
2019-04-03T03:50:23.934Z,78.15
2019-04-03T03:52:52.073Z,77.92
2019-04-03T03:55:22.795Z,77.89
2019-04-03T03:57:51.157Z,77.98
2019-04-03T04:00:22.581Z,77.57
2019-04-03T04:02:49.811Z,77.51
2019-04-03T04:05:21.380Z,77.17
2019-04-03T04:07:48.269Z,77.38
2019-04-03T04:10:16.576Z,77.15
2019-04-03T04:12:45.663Z,77.11
2019-04-03T04:15:14.118Z,77.13
2019-04-03T04:17:42.596Z,77.24
2019-04-03T04:20:12.000Z,77.05
2019-04-03T04:22:40.590Z,76.99
2019-04-03T04:25:08.936Z,77.08
2019-04-03T04:27:39.139Z,77.14
2019-04-03T04:30:08.111Z,77.21
2019-04-03T04:32:36.614Z,77.15
2019-04-03T04:35:06.547Z,77.03
2019-04-03T04:37:34.860Z,77.23
2019-04-03T04:40:03.362Z,77.00
2019-04-03T04:42:34.362Z,77.06
2019-04-03T04:45:02.276Z,77.10
2019-04-03T04:47:30.577Z,77.29
2019-04-03T04:49:58.864Z,77.30
2019-04-03T04:52:27.686Z,77.39
2019-04-03T04:54:56.489Z,77.27
2019-04-03T04:57:25.166Z,77.13
2019-04-03T04:59:53.573Z,77.22
2019-04-03T05:02:22.208Z,77.19
2019-04-03T05:04:50.506Z,77.41
2019-04-03T05:07:19.253Z,77.39
2019-04-03T05:09:47.483Z,77.42
2019-04-03T05:12:16.424Z,77.37
2019-04-03T05:14:44.725Z,77.50
2019-04-03T05:17:13.072Z,77.40
2019-04-03T05:19:41.323Z,77.26
2019-04-03T05:22:09.984Z,77.24
2019-04-03T05:24:38.354Z,77.32
2019-04-03T05:27:08.305Z,77.18
2019-04-03T05:29:36.782Z,77.30
2019-04-03T05:32:05.435Z,77.24
2019-04-03T05:34:33.825Z,77.15
2019-04-03T05:37:02.117Z,77.00
2019-04-03T05:39:30.414Z,76.95
2019-04-03T05:41:59.661Z,77.18
2019-04-03T05:44:28.536Z,77.26
2019-04-03T05:46:59.465Z,77.23
2019-04-03T05:49:26.875Z,77.55
2019-04-03T05:51:55.799Z,78.41
2019-04-03T05:54:24.099Z,79.48
2019-04-03T05:56:52.569Z,80.02
2019-04-03T05:59:21.207Z,80.82
2019-04-03T06:01:49.643Z,81.27
2019-04-03T06:04:18.387Z,82.05
2019-04-03T06:06:47.293Z,82.70
2019-04-03T06:09:15.839Z,82.96
2019-04-03T06:11:44.146Z,83.56
2019-04-03T06:14:12.834Z,83.89
2019-04-03T06:16:41.663Z,84.29
2019-04-03T06:19:09.979Z,84.52
2019-04-03T06:21:38.295Z,84.88
2019-04-03T06:24:06.856Z,85.13
2019-04-03T06:26:37.148Z,85.43
2019-04-03T06:29:07.298Z,85.65
2019-04-03T06:31:35.821Z,85.91
2019-04-03T06:34:07.011Z,85.93
2019-04-03T06:36:34.409Z,85.66
2019-04-03T06:39:03.224Z,85.35
2019-04-03T06:41:31.802Z,85.03
2019-04-03T06:44:00.115Z,84.75
2019-04-03T06:46:29.886Z,84.64
2019-04-03T06:48:58.435Z,84.53
2019-04-03T06:51:26.799Z,84.32
2019-04-03T06:53:55.070Z,84.29
2019-04-03T06:56:23.658Z,84.18
2019-04-03T06:58:52.125Z,84.01
2019-04-03T07:01:20.570Z,84.25
2019-04-03T07:03:49.124Z,84.28
2019-04-03T07:06:18.001Z,84.39
2019-04-03T07:08:46.280Z,84.05
2019-04-03T07:11:23.179Z,84.03
2019-04-03T07:13:44.925Z,84.26
2019-04-03T07:16:13.342Z,84.75
2019-04-03T07:18:41.883Z,85.10
2019-04-03T07:21:10.197Z,85.26
2019-04-03T07:23:39.101Z,85.47
2019-04-03T07:26:07.490Z,85.42
2019-04-03T07:28:35.782Z,85.39
2019-04-03T07:31:04.392Z,85.33
2019-04-03T07:33:32.963Z,85.44
2019-04-03T07:36:01.590Z,85.73
2019-04-03T07:38:30.101Z,86.22
2019-04-03T07:40:58.412Z,86.61
2019-04-03T07:43:27.561Z,86.96
2019-04-03T07:45:56.309Z,86.97
2019-04-03T07:48:24.600Z,87.26
2019-04-03T07:50:53.047Z,87.45
2019-04-03T07:53:21.472Z,87.61
2019-04-03T07:55:50.137Z,87.43
2019-04-03T07:58:18.714Z,87.44
2019-04-03T08:00:47.038Z,87.45
2019-04-03T08:03:15.665Z,87.59
2019-04-03T08:05:44.374Z,87.62
2019-04-03T08:08:13.222Z,87.64
2019-04-03T08:10:42.005Z,87.49
2019-04-03T08:13:10.311Z,87.43
2019-04-03T08:15:38.883Z,87.36
2019-04-03T08:18:07.373Z,87.46
2019-04-03T08:20:35.985Z,87.60
2019-04-03T08:23:05.630Z,87.69
2019-04-03T08:25:35.097Z,87.88
2019-04-03T08:28:03.484Z,88.07
2019-04-03T08:30:31.774Z,88.29
2019-04-03T08:33:00.262Z,88.36
2019-04-03T08:35:28.698Z,88.34
2019-04-03T08:37:57.273Z,87.94
2019-04-03T08:40:25.862Z,87.88
2019-04-03T08:42:54.422Z,87.72
2019-04-03T08:45:23.339Z,87.94
2019-04-03T08:47:51.708Z,88.00
2019-04-03T08:50:20.047Z,87.86
2019-04-03T08:52:48.912Z,87.96
2019-04-03T08:55:17.461Z,87.79
2019-04-03T08:57:46.862Z,87.84
2019-04-03T09:00:17.344Z,87.61
2019-04-03T09:02:45.742Z,87.01
2019-04-03T09:05:15.137Z,86.09
2019-04-03T09:07:43.652Z,86.06
2019-04-03T09:10:13.485Z,86.07
2019-04-03T09:12:42.074Z,86.02
2019-04-03T09:15:11.316Z,85.97
2019-04-03T09:17:39.937Z,85.81
2019-04-03T09:20:08.406Z,85.81
2019-04-03T09:22:36.738Z,86.15
2019-04-03T09:25:06.870Z,86.22
2019-04-03T09:27:35.174Z,85.60
2019-04-03T09:30:11.817Z,85.58
2019-04-03T09:32:40.113Z,85.68
2019-04-03T09:35:08.755Z,85.56
2019-04-03T09:37:38.100Z,85.21
2019-04-03T09:40:07.440Z,84.54
2019-04-03T09:42:35.855Z,84.25
2019-04-03T09:45:07.504Z,84.28
2019-04-03T09:47:35.824Z,84.26
2019-04-03T09:50:06.918Z,83.43
2019-04-03T09:52:42.070Z,82.47
2019-04-03T09:55:06.269Z,82.91
2019-04-03T09:57:34.601Z,82.84
2019-04-03T10:00:04.099Z,82.29
2019-04-03T10:02:32.420Z,82.85
2019-04-03T10:05:01.041Z,82.32
2019-04-03T10:07:31.453Z,81.40
2019-04-03T10:09:59.377Z,81.93
2019-04-03T10:12:27.666Z,81.92
2019-04-03T10:14:57.042Z,82.23
2019-04-03T10:17:26.032Z,82.24
2019-04-03T10:19:54.583Z,82.02
2019-04-03T10:22:24.173Z,82.51
2019-04-03T10:24:53.045Z,82.58
2019-04-03T10:27:21.662Z,82.80
2019-04-03T10:29:50.841Z,83.57
2019-04-03T10:32:19.423Z,83.87
2019-04-03T10:34:48.029Z,83.77
2019-04-03T10:37:16.321Z,83.70
2019-04-03T10:39:44.973Z,83.67
2019-04-03T10:42:13.486Z,84.01
2019-04-03T10:44:42.276Z,84.09
2019-04-03T10:47:10.576Z,84.36
2019-04-03T10:49:39.134Z,84.79
2019-04-03T10:52:07.450Z,84.33
2019-04-03T10:54:38.055Z,84.90
2019-04-03T10:57:06.434Z,84.27
2019-04-03T10:59:34.786Z,84.37
2019-04-03T11:02:03.121Z,84.28
2019-04-03T11:04:31.417Z,84.65
2019-04-03T11:07:00.099Z,84.46
2019-04-03T11:09:28.436Z,83.67
2019-04-03T11:11:58.273Z,84.06
2019-04-03T11:14:27.173Z,83.67
2019-04-03T11:16:55.818Z,84.02
2019-04-03T11:19:24.302Z,84.19
2019-04-03T11:21:55.746Z,83.20
2019-04-03T11:24:23.423Z,83.13
2019-04-03T11:26:52.510Z,82.85
2019-04-03T11:29:21.426Z,82.87
2019-04-03T11:31:50.370Z,82.94
2019-04-03T11:34:19.192Z,83.00
2019-04-03T11:36:47.649Z,83.01
2019-04-03T11:39:16.791Z,82.82
2019-04-03T11:41:45.161Z,81.43
2019-04-03T11:44:13.902Z,80.87
2019-04-03T11:46:42.372Z,81.06
2019-04-03T11:49:11.014Z,81.06
2019-04-03T11:51:39.567Z,81.51
2019-04-03T11:54:08.584Z,81.59
2019-04-03T11:56:37.463Z,80.94
2019-04-03T11:59:05.768Z,80.49
2019-04-03T12:01:34.154Z,78.20
2019-04-03T12:04:02.756Z,76.70
2019-04-03T12:06:31.134Z,75.74
2019-04-03T12:09:01.029Z,75.30
2019-04-03T12:11:29.512Z,74.48
2019-04-03T12:13:57.812Z,74.20
2019-04-03T12:16:26.621Z,74.23
2019-04-03T12:18:55.019Z,74.54
2019-04-03T12:21:23.322Z,72.36
2019-04-03T12:23:51.741Z,72.28
2019-04-03T12:26:21.282Z,72.21
2019-04-03T12:28:50.210Z,71.86
2019-04-03T12:31:19.293Z,71.94
2019-04-03T12:33:56.835Z,73.01
2019-04-03T12:36:18.091Z,72.62
2019-04-03T12:38:46.653Z,70.13
2019-04-03T12:41:15.580Z,71.30
2019-04-03T12:43:43.860Z,71.19
2019-04-03T12:46:12.488Z,70.56
2019-04-03T12:48:41.104Z,70.37
2019-04-03T12:51:09.382Z,69.02
2019-04-03T12:53:37.925Z,68.93
2019-04-03T12:56:06.587Z,69.89
2019-04-03T12:58:36.299Z,71.27
2019-04-03T13:01:05.150Z,72.28
2019-04-03T13:03:36.389Z,70.41
2019-04-03T13:06:03.869Z,70.63
2019-04-03T13:08:32.188Z,70.69
2019-04-03T13:11:00.763Z,68.89
2019-04-03T13:13:29.170Z,69.20
2019-04-03T13:15:57.473Z,70.32
2019-04-03T13:18:25.765Z,70.30
2019-04-03T13:20:54.391Z,68.00
2019-04-03T13:23:22.686Z,67.40
2019-04-03T13:25:53.100Z,69.48
2019-04-03T13:28:21.627Z,68.70
2019-04-03T13:30:50.269Z,66.92
2019-04-03T13:33:18.620Z,65.40
2019-04-03T13:35:48.359Z,64.86
2019-04-03T13:38:17.547Z,64.27
2019-04-03T13:40:46.095Z,64.25
2019-04-03T13:43:15.025Z,63.50
2019-04-03T13:45:43.809Z,61.96
2019-04-03T13:48:13.404Z,62.40
2019-04-03T13:50:45.045Z,64.18
2019-04-03T13:53:12.736Z,64.18
2019-04-03T13:55:41.203Z,63.39
2019-04-03T13:58:09.516Z,63.81
2019-04-03T14:00:37.866Z,64.35
2019-04-03T14:03:06.177Z,64.52
2019-04-03T14:05:34.892Z,65.22
2019-04-03T14:08:06.037Z,65.78
2019-04-03T14:10:34.013Z,66.06
2019-04-03T14:13:02.344Z,66.83
2019-04-03T14:15:31.134Z,66.80
2019-04-03T14:17:59.524Z,67.54
2019-04-03T14:20:28.709Z,67.31
2019-04-03T14:22:56.978Z,67.09
2019-04-03T14:25:28.107Z,67.80
2019-04-03T14:27:55.980Z,67.99
2019-04-03T14:30:24.623Z,68.81
2019-04-03T14:32:54.668Z,69.91
2019-04-03T14:35:45.194Z,70.68
2019-04-03T14:37:53.414Z,69.95
2019-04-03T14:40:22.067Z,69.92
2019-04-03T14:42:50.841Z,69.37
2019-04-03T14:45:19.853Z,69.23
2019-04-03T14:47:48.568Z,69.91
2019-04-03T14:50:17.085Z,70.16
2019-04-03T14:52:47.653Z,69.37
2019-04-03T14:55:19.802Z,69.15
2019-04-03T14:57:45.628Z,68.74
2019-04-03T15:00:25.651Z,68.64
2019-04-03T15:02:44.432Z,69.09
2019-04-03T15:05:12.991Z,68.04
2019-04-03T15:07:41.347Z,67.58
2019-04-03T15:10:10.080Z,67.25
2019-04-03T15:12:39.871Z,67.12
2019-04-03T15:15:09.703Z,66.96
2019-04-03T15:17:38.739Z,67.99
2019-04-03T15:20:08.545Z,68.19
2019-04-03T15:22:37.144Z,67.60
2019-04-03T15:25:06.482Z,67.01
2019-04-03T15:27:34.739Z,67.34
2019-04-03T15:30:03.034Z,66.90
2019-04-03T15:32:32.049Z,66.37
2019-04-03T15:35:01.217Z,66.97
2019-04-03T15:37:29.997Z,66.84
2019-04-03T15:39:59.129Z,66.67
2019-04-03T15:42:27.988Z,66.56
2019-04-03T15:44:57.727Z,66.63
2019-04-03T15:47:35.180Z,66.73
2019-04-03T15:49:58.746Z,65.62
2019-04-03T15:52:26.445Z,64.90
2019-04-03T15:54:54.776Z,65.91
2019-04-03T15:57:23.258Z,66.21
2019-04-03T15:59:52.761Z,67.17
2019-04-03T16:02:21.514Z,67.01
2019-04-03T16:04:50.370Z,67.30
2019-04-03T16:07:18.933Z,67.61
2019-04-03T16:09:49.633Z,66.97
2019-04-03T16:12:17.831Z,66.94
2019-04-03T16:14:46.848Z,67.18
2019-04-03T16:17:15.561Z,66.87
2019-04-03T16:19:44.769Z,66.52
2019-04-03T16:22:13.684Z,66.41
2019-04-03T16:24:44.279Z,66.38
2019-04-03T16:27:12.006Z,66.46
2019-04-03T16:29:41.324Z,67.14
2019-04-03T16:32:10.294Z,67.67
2019-04-03T16:34:40.817Z,67.42
2019-04-03T16:37:08.673Z,67.49
2019-04-03T16:39:36.975Z,67.51
2019-04-03T16:42:05.438Z,67.74
2019-04-03T16:44:34.003Z,68.04
2019-04-03T16:47:02.893Z,68.62
2019-04-03T16:49:31.595Z,68.82
2019-04-03T16:51:59.865Z,68.94
2019-04-03T16:54:29.601Z,68.81
2019-04-03T16:56:58.280Z,69.39
2019-04-03T16:59:26.696Z,69.38
2019-04-03T17:01:54.945Z,69.57
2019-04-03T17:04:27.202Z,69.76
2019-04-03T17:06:53.791Z,70.33
2019-04-03T17:09:22.090Z,69.76
2019-04-03T17:11:51.195Z,69.97
2019-04-03T17:14:23.671Z,70.61
2019-04-03T17:16:50.480Z,71.21
2019-04-03T17:19:18.948Z,71.84
2019-04-03T17:21:47.244Z,72.21
2019-04-03T17:24:17.826Z,72.42
2019-04-03T17:26:50.895Z,72.58
2019-04-03T17:29:17.022Z,72.66
2019-04-03T17:31:45.532Z,73.07
2019-04-03T17:34:13.824Z,73.01
2019-04-03T17:36:42.360Z,73.27
2019-04-03T17:39:11.174Z,73.55
2019-04-03T17:41:39.512Z,73.76
2019-04-03T17:44:07.837Z,74.19
2019-04-03T17:46:36.138Z,74.08
2019-04-03T17:49:04.987Z,74.23
2019-04-03T17:51:34.197Z,74.67
2019-04-03T17:54:02.477Z,75.47
2019-04-03T17:56:30.844Z,75.79
2019-04-03T17:58:59.191Z,76.33
2019-04-03T18:01:27.501Z,76.13
2019-04-03T18:03:55.819Z,76.94
2019-04-03T18:06:27.170Z,77.58
2019-04-03T18:08:54.190Z,77.86
2019-04-03T18:11:22.471Z,78.47
2019-04-03T18:13:50.754Z,78.79
2019-04-03T18:16:19.068Z,79.31
2019-04-03T18:18:49.883Z,79.58
2019-04-03T18:21:18.380Z,79.42
2019-04-03T18:23:46.698Z,79.43
2019-04-03T18:26:15.005Z,79.48
2019-04-03T18:28:43.318Z,79.78
2019-04-03T18:31:11.779Z,80.49
2019-04-03T18:33:41.860Z,81.13
2019-04-03T18:36:10.184Z,81.32
2019-04-03T18:38:39.104Z,81.58
2019-04-03T18:41:07.448Z,82.30
2019-04-03T18:43:35.747Z,82.99
2019-04-03T18:46:04.118Z,83.44
2019-04-03T18:48:32.413Z,84.02
2019-04-03T18:51:00.720Z,84.41
2019-04-03T18:53:29.057Z,84.75
2019-04-03T18:55:57.386Z,84.92
2019-04-03T18:58:25.686Z,85.29
2019-04-03T19:00:53.981Z,85.62
2019-04-03T19:03:22.279Z,86.01
2019-04-03T19:05:50.604Z,86.26
2019-04-03T19:08:18.886Z,86.65
2019-04-03T19:10:47.199Z,86.87
2019-04-03T19:13:15.564Z,87.03
2019-04-03T19:15:43.939Z,87.09
2019-04-03T19:18:19.380Z,87.33
2019-04-03T19:20:43.408Z,87.33
2019-04-03T19:23:12.652Z,87.48
2019-04-03T19:25:41.046Z,87.70
2019-04-03T19:28:09.365Z,87.80
2019-04-03T19:30:38.032Z,87.84
2019-04-03T19:33:06.757Z,87.75
2019-04-03T19:35:35.062Z,87.77
2019-04-03T19:38:04.991Z,87.92
2019-04-03T19:40:33.477Z,87.98
2019-04-03T19:43:01.778Z,87.92
2019-04-03T19:45:30.110Z,88.02
2019-04-03T19:47:58.675Z,88.31
2019-04-03T19:50:26.978Z,88.51
2019-04-03T19:52:55.260Z,88.57
2019-04-03T19:55:24.188Z,88.79
2019-04-03T19:57:52.817Z,88.99
2019-04-03T20:00:21.202Z,89.05
2019-04-03T20:02:49.598Z,89.22
2019-04-03T20:05:19.040Z,89.27
2019-04-03T20:07:47.836Z,89.32
2019-04-03T20:10:16.229Z,89.41
2019-04-03T20:12:44.519Z,89.44
2019-04-03T20:15:12.942Z,89.60
2019-04-03T20:17:41.252Z,89.62
2019-04-03T20:20:10.874Z,89.64
2019-04-03T20:22:42.313Z,89.52
2019-04-03T20:25:09.370Z,89.62
2019-04-03T20:27:37.767Z,89.64
2019-04-03T20:30:07.728Z,89.66
2019-04-03T20:32:36.105Z,89.64
2019-04-03T20:35:06.229Z,89.69
2019-04-03T20:37:34.536Z,89.88
2019-04-03T20:40:03.172Z,90.03
2019-04-03T20:42:31.510Z,89.99
2019-04-03T20:44:59.798Z,90.00
2019-04-03T20:47:28.214Z,90.11
2019-04-03T20:49:56.504Z,90.18
2019-04-03T20:52:24.799Z,90.26
2019-04-03T20:54:53.829Z,90.22
2019-04-03T20:57:22.284Z,90.12
2019-04-03T20:59:58.477Z,90.14
2019-04-03T21:02:20.675Z,90.17
2019-04-03T21:04:49.099Z,90.16
2019-04-03T21:07:17.371Z,90.17
2019-04-03T21:09:45.666Z,90.32
2019-04-03T21:12:14.035Z,90.46
2019-04-03T21:14:42.334Z,90.32
2019-04-03T21:17:10.625Z,90.26
2019-04-03T21:19:38.919Z,90.12
2019-04-03T21:22:07.474Z,90.13
2019-04-03T21:24:36.088Z,90.29
2019-04-03T21:27:04.379Z,90.43
2019-04-03T21:29:32.947Z,90.39
2019-04-03T21:32:01.234Z,90.50
2019-04-03T21:34:33.203Z,90.54
2019-04-03T21:37:01.786Z,90.56
2019-04-03T21:39:30.180Z,90.46
2019-04-03T21:41:58.635Z,90.26
2019-04-03T21:44:27.223Z,90.09
2019-04-03T21:46:55.799Z,90.20
2019-04-03T21:49:24.097Z,90.26
2019-04-03T21:51:52.462Z,90.36
2019-04-03T21:54:20.764Z,90.47
2019-04-03T21:56:49.079Z,90.50
2019-04-03T21:59:17.358Z,90.65
2019-04-03T22:05:14.121Z,90.75
2019-04-03T22:07:42.394Z,90.43
2019-04-03T22:10:11.111Z,90.35
2019-04-03T22:12:39.398Z,90.47
2019-04-03T22:15:08.172Z,90.60
2019-04-03T22:17:36.749Z,90.67
2019-04-03T22:20:06.223Z,90.70
2019-04-03T22:22:34.517Z,90.78
2019-04-03T22:25:02.803Z,90.83
2019-04-03T22:27:31.126Z,91.00
2019-04-03T22:29:59.419Z,90.97
2019-04-03T22:32:27.710Z,90.96
2019-04-03T22:34:55.989Z,91.00
2019-04-03T22:37:24.609Z,91.01
2019-04-03T22:39:52.891Z,90.97
2019-04-03T22:42:23.199Z,90.95
2019-04-03T22:44:51.216Z,90.98
2019-04-03T22:47:19.795Z,91.03
2019-04-03T22:49:48.110Z,90.98
2019-04-03T22:52:16.391Z,90.86
2019-04-03T22:54:45.014Z,90.91
2019-04-03T22:57:13.310Z,90.80
2019-04-03T22:59:41.617Z,90.71
2019-04-03T23:02:10.334Z,90.60
2019-04-03T23:04:41.822Z,90.71
2019-04-03T23:07:08.631Z,90.83
2019-04-03T23:09:37.220Z,90.81
2019-04-03T23:12:05.525Z,90.84
2019-04-03T23:14:33.926Z,90.94
2019-04-03T23:17:02.545Z,91.03
2019-04-03T23:19:32.482Z,90.95
2019-04-03T23:22:00.914Z,90.81
2019-04-03T23:24:29.574Z,90.73
2019-04-03T23:26:58.215Z,90.80
2019-04-03T23:29:26.530Z,90.81
2019-04-03T23:31:54.818Z,90.86
2019-04-03T23:34:23.125Z,90.97
2019-04-03T23:36:52.429Z,90.84
2019-04-03T23:39:21.731Z,90.71
2019-04-03T23:41:50.023Z,90.69
2019-04-03T23:44:18.619Z,90.56
2019-04-03T23:46:47.218Z,90.44
2019-04-03T23:49:15.890Z,90.36
2019-04-03T23:51:44.178Z,90.24
2019-04-03T23:54:12.485Z,90.10
2019-04-03T23:56:40.789Z,90.28
2019-04-03T23:59:09.091Z,90.27
